Terminal Aerodrome Forecast
Issued by NWS Wichita, KS

Home | Current Version | Previous Version | Graphics & Text | Print | Product List | Glossary On
Versions: 1 2 3 4 5 6 7 8 9 10 11 12 13 14 15 16 17 18
191
FTUS43 KICT 280527
TAFICT
TAF
KICT 280527Z 2806/0106 18015G22KT 5SM BR OVC006 WS020/21045KT
     FM281000 19014G20KT 6SM BR BKN010 WS020/22040KT
     FM281300 20016G23KT P6SM FEW018 SCT200
     FM281700 21019G27KT P6SM BKN200
     FM010000 33016G23KT P6SM VCSH SCT025 BKN100
      TEMPO 0102/0106 BKN025=

USA.gov is the U.S. government's official web portal to all federal, state and local government web resources and services.